Time;durP1;ratioP1;P1;durP2;ratioP2;P2;SDS_P1;SDS_P2;PMS_P1;PMS_P2;Temp;Humidity;BMP_temperature;BMP_pressure;BME280_temperature;BME280_humidity;BME280_pressure;Samples;Min_cycle;Max_cycle;Signal;HPM_P1;HPM_P2
2023/08/26 00:00:20;;;;;;;0.95;0.17;;;;;;;14.72;100.00;100107.72;5037743;28;20462;-48
2023/08/26 00:02:45;;;;;;;1.35;0.20;;;;;;;14.49;100.00;100111.88;5036632;28;20041;-48
2023/08/26 00:05:10;;;;;;;1.85;0.17;;;;;;;14.68;100.00;100111.88;5031960;28;20090;-49
2023/08/26 00:07:36;;;;;;;0.00;0.00;;;;;;;14.59;100.00;100111.38;5030903;28;20533;-49
2023/08/26 00:10:02;;;;;;;0.38;0.38;;;;;;;14.60;100.00;100119.16;5029970;28;20034;-50
2023/08/26 00:12:27;;;;;;;0.17;0.17;;;;;;;14.73;100.00;100120.00;5041410;28;20052;-47
2023/08/26 00:14:52;;;;;;;0.20;0.17;;;;;;;14.81;100.00;100119.69;5036410;28;20052;-49
2023/08/26 00:17:18;;;;;;;0.03;0.03;;;;;;;15.00;100.00;100104.44;5034068;28;20178;-49
2023/08/26 00:19:44;;;;;;;0.28;0.25;;;;;;;15.15;100.00;100112.78;5036611;28;20029;-48
2023/08/26 00:22:10;;;;;;;1.08;0.38;;;;;;;15.27;100.00;100104.81;5038209;28;20077;-49
2023/08/26 00:24:36;;;;;;;0.43;0.20;;;;;;;15.37;100.00;100102.38;5033305;28;20170;-49
2023/08/26 00:27:01;;;;;;;0.20;0.10;;;;;;;15.35;100.00;100098.31;5035868;28;20029;-48
2023/08/26 00:29:27;;;;;;;0.82;0.10;;;;;;;15.26;100.00;100100.53;5032518;28;20375;-48
2023/08/26 00:31:52;;;;;;;0.15;0.08;;;;;;;15.09;100.00;100092.34;5032044;28;20044;-47
2023/08/26 00:34:17;;;;;;;1.55;0.10;;;;;;;15.01;100.00;100095.38;5032873;28;20044;-46
2023/08/26 00:36:43;;;;;;;0.15;0.13;;;;;;;15.03;100.00;100096.75;5035636;28;20476;-46
2023/08/26 00:39:08;;;;;;;0.00;0.00;;;;;;;14.98;100.00;100088.63;5028897;28;20400;-51
2023/08/26 00:41:33;;;;;;;1.65;0.20;;;;;;;14.92;100.00;100086.88;5039383;28;20029;-47
2023/08/26 00:43:59;;;;;;;0.55;0.00;;;;;;;14.98;100.00;100091.28;5030613;28;20033;-48
2023/08/26 00:46:25;;;;;;;0.10;0.10;;;;;;;14.96;100.00;100095.25;5029788;28;20067;-45
2023/08/26 00:48:50;;;;;;;0.00;0.00;;;;;;;14.91;100.00;100085.25;5030893;28;20112;-49
2023/08/26 00:51:15;;;;;;;0.22;0.20;;;;;;;14.89;100.00;100087.31;5031541;28;20049;-48
2023/08/26 00:53:41;;;;;;;0.10;0.10;;;;;;;14.92;100.00;100078.88;5029027;28;20098;-48
2023/08/26 00:56:07;;;;;;;0.10;0.10;;;;;;;14.94;100.00;100079.44;5034680;28;20036;-45
2023/08/26 00:58:33;;;;;;;0.10;0.10;;;;;;;14.95;100.00;100072.28;5034403;28;20033;-46
2023/08/26 01:00:59;;;;;;;0.20;0.10;;;;;;;14.97;100.00;100075.50;5034676;28;20232;-51
2023/08/26 01:03:24;;;;;;;0.20;0.10;;;;;;;14.96;100.00;100080.03;5031932;28;20049;-48
2023/08/26 01:05:50;;;;;;;2.28;0.10;;;;;;;14.95;100.00;100078.41;5033978;28;20037;-45
2023/08/26 01:08:15;;;;;;;0.75;0.10;;;;;;;14.88;100.00;100071.56;5037453;28;20123;-49
2023/08/26 01:11:05;;;;;;;0.90;0.10;;;;;;;14.87;100.00;100070.75;5038897;28;20075;-45
2023/08/26 01:13:50;;;;;;;1.38;0.22;;;;;;;14.84;100.00;100065.84;5027464;28;20130;-46
2023/08/26 01:16:16;;;;;;;0.10;0.10;;;;;;;14.72;100.00;100067.69;5034583;28;20478;-46
2023/08/26 01:18:43;;;;;;;1.48;0.20;;;;;;;14.64;100.00;100071.50;5031731;28;20055;-46
2023/08/26 01:21:11;;;;;;;0.10;0.10;;;;;;;14.61;100.00;100067.44;5038894;28;20139;-50
2023/08/26 01:23:41;;;;;;;0.80;0.20;;;;;;;14.56;100.00;100066.47;5033869;28;20033;-49
2023/08/26 01:26:07;;;;;;;0.10;0.00;;;;;;;14.47;100.00;100071.28;5033544;28;20045;-47
2023/08/26 01:28:33;;;;;;;0.32;0.32;;;;;;;14.53;100.00;100069.59;5053907;28;20029;-49
2023/08/26 01:31:01;;;;;;;0.00;0.00;;;;;;;14.61;100.00;100071.94;5032960;28;20436;-47
2023/08/26 01:33:33;;;;;;;0.28;0.03;;;;;;;14.66;100.00;100071.25;5037643;28;20048;-49
2023/08/26 01:36:00;;;;;;;0.00;0.00;;;;;;;14.63;100.00;100069.84;5036834;28;20372;-48
2023/08/26 01:38:27;;;;;;;0.55;0.28;;;;;;;14.66;100.00;100063.25;5033569;28;20032;-50
2023/08/26 01:40:56;;;;;;;0.10;0.00;;;;;;;14.65;100.00;100062.44;5042284;28;20033;-51
2023/08/26 01:43:22;;;;;;;0.00;0.00;;;;;;;14.48;100.00;100064.91;5027735;28;20514;-50
2023/08/26 01:45:47;;;;;;;1.23;0.00;;;;;;;14.39;100.00;100067.06;5031967;28;20033;-47
2023/08/26 01:48:13;;;;;;;1.10;0.00;;;;;;;14.34;100.00;100072.28;5030930;28;20479;-52
2023/08/26 01:50:38;;;;;;;1.27;0.10;;;;;;;14.21;100.00;100063.63;5037951;28;20039;-48
2023/08/26 01:53:04;;;;;;;1.85;0.20;;;;;;;14.25;100.00;100062.13;5029776;28;20034;-49
2023/08/26 01:55:30;;;;;;;0.28;0.10;;;;;;;14.22;100.00;100062.59;5033344;28;20112;-48
2023/08/26 01:57:55;;;;;;;0.10;0.00;;;;;;;14.12;100.00;100058.63;5032259;28;20037;-47
2023/08/26 02:00:20;;;;;;;0.08;0.00;;;;;;;14.05;100.00;100062.41;5032010;28;20029;-49
2023/08/26 02:02:46;;;;;;;0.00;0.00;;;;;;;14.08;100.00;100064.63;5033216;28;20044;-47
2023/08/26 02:05:11;;;;;;;0.10;0.10;;;;;;;14.03;100.00;100059.94;5038725;28;20048;-50
2023/08/26 02:07:36;;;;;;;2.50;0.90;;;;;;;13.90;100.00;100070.78;5037814;28;20040;-49
2023/08/26 02:10:02;;;;;;;0.10;0.10;;;;;;;13.83;100.00;100067.38;5037345;28;20034;-47
2023/08/26 02:12:28;;;;;;;0.65;0.10;;;;;;;13.71;100.00;100078.78;5029639;28;20479;-48
2023/08/26 02:14:53;;;;;;;1.75;0.10;;;;;;;13.84;100.00;100074.34;5029420;28;20028;-52
2023/08/26 02:17:19;;;;;;;0.80;0.52;;;;;;;13.92;100.00;100076.69;5021856;28;20236;-47
2023/08/26 02:19:44;;;;;;;0.00;0.00;;;;;;;14.06;100.00;100077.34;5031968;28;20064;-48
2023/08/26 02:22:09;;;;;;;0.00;0.00;;;;;;;14.11;100.00;100077.50;5037543;28;20116;-51
2023/08/26 02:24:35;;;;;;;0.00;0.00;;;;;;;14.10;100.00;100076.69;5030754;28;20037;-49
2023/08/26 02:27:00;;;;;;;0.05;0.00;;;;;;;14.22;100.00;100073.25;5030806;28;20025;-49
2023/08/26 02:29:26;;;;;;;0.17;0.10;;;;;;;14.24;100.00;100066.66;5033414;28;20448;-46
2023/08/26 02:31:51;;;;;;;0.20;0.10;;;;;;;14.21;100.00;100071.63;5039183;28;20033;-46
2023/08/26 02:34:17;;;;;;;0.10;0.10;;;;;;;14.30;100.00;100072.94;5029509;28;20033;-48
2023/08/26 02:36:42;;;;;;;0.20;0.20;;;;;;;14.53;100.00;100073.09;5039154;28;20033;-49
2023/08/26 02:39:07;;;;;;;1.08;0.10;;;;;;;14.66;100.00;100064.06;5033919;28;20680;-49
2023/08/26 02:41:33;;;;;;;0.82;0.10;;;;;;;14.79;100.00;100063.88;5042138;28;20075;-48
2023/08/26 02:43:58;;;;;;;0.10;0.10;;;;;;;14.91;100.00;100066.56;5040278;28;20044;-50
2023/08/26 02:46:23;;;;;;;0.20;0.17;;;;;;;14.98;100.00;100072.63;5031905;28;20037;-47
2023/08/26 02:48:50;;;;;;;0.57;0.47;;;;;;;15.02;100.00;100072.94;5042045;28;20033;-49
2023/08/26 02:51:15;;;;;;;0.50;0.28;;;;;;;15.04;100.00;100070.88;5032611;28;20032;-49
2023/08/26 02:53:41;;;;;;;0.52;0.20;;;;;;;15.16;100.00;100079.72;5034872;28;20037;-49
2023/08/26 02:56:06;;;;;;;0.65;0.65;;;;;;;15.34;100.00;100076.13;5034858;28;20041;-48
2023/08/26 02:58:31;;;;;;;1.08;0.22;;;;;;;15.39;100.00;100067.44;5040253;28;20025;-46
2023/08/26 03:01:00;;;;;;;0.30;0.10;;;;;;;15.39;100.00;100075.44;5036951;28;20029;-50
2023/08/26 03:03:26;;;;;;;0.60;0.50;;;;;;;15.41;100.00;100067.97;5032283;28;20052;-47
2023/08/26 03:05:55;;;;;;;0.85;0.20;;;;;;;15.58;100.00;100065.44;5031819;28;20425;-51
2023/08/26 03:08:20;;;;;;;0.68;0.43;;;;;;;15.62;100.00;100063.94;5034358;28;20037;-48
2023/08/26 03:11:00;;;;;;;0.43;0.43;;;;;;;15.61;100.00;100056.94;5032643;28;20517;-48
2023/08/26 03:13:25;;;;;;;0.20;0.20;;;;;;;15.62;100.00;100048.69;5036917;28;20123;-45
2023/08/26 03:15:51;;;;;;;0.80;0.80;;;;;;;15.70;100.00;100055.56;5040094;28;20025;-48
2023/08/26 03:18:16;;;;;;;0.47;0.47;;;;;;;15.69;100.00;100053.94;5029829;28;20128;-51
2023/08/26 03:20:41;;;;;;;1.27;0.47;;;;;;;15.63;100.00;100053.00;5033503;28;20029;-48
2023/08/26 03:23:06;;;;;;;0.70;0.70;;;;;;;15.57;100.00;100048.59;5027780;28;20053;-53
2023/08/26 03:25:37;;;;;;;0.90;0.70;;;;;;;15.56;100.00;100051.50;5028041;28;20051;-50
2023/08/26 03:28:02;;;;;;;1.15;0.50;;;;;;;15.42;100.00;100053.59;5033516;28;20076;-49
2023/08/26 03:30:27;;;;;;;4.32;0.60;;;;;;;15.46;100.00;100047.56;5033197;28;20112;-49
2023/08/26 03:32:53;;;;;;;0.52;0.50;;;;;;;15.44;100.00;100044.31;5033767;28;20037;-47
2023/08/26 03:35:18;;;;;;;1.05;0.43;;;;;;;15.44;100.00;100046.97;5032538;28;20025;-49
2023/08/26 03:37:43;;;;;;;0.47;0.47;;;;;;;15.45;100.00;100045.91;5038914;28;20037;-49
2023/08/26 03:40:09;;;;;;;1.50;0.90;;;;;;;15.47;100.00;100045.69;5039881;28;20113;-49
2023/08/26 03:42:34;;;;;;;1.13;0.73;;;;;;;15.48;100.00;100044.63;5040315;28;20103;-46
2023/08/26 03:45:00;;;;;;;0.47;0.47;;;;;;;15.53;100.00;100044.75;5032487;28;20100;-45
2023/08/26 03:47:25;;;;;;;0.65;0.60;;;;;;;15.42;100.00;100038.38;5040072;28;20040;-51
2023/08/26 03:49:51;;;;;;;0.95;0.65;;;;;;;15.43;100.00;100037.31;5027358;28;20033;-51
2023/08/26 03:52:17;;;;;;;1.23;0.40;;;;;;;15.47;100.00;100043.84;5035507;28;20021;-45
2023/08/26 03:54:42;;;;;;;0.43;0.20;;;;;;;15.47;100.00;100046.50;5033736;28;20034;-45
2023/08/26 03:57:07;;;;;;;0.80;0.63;;;;;;;15.42;100.00;100038.38;5038813;28;20033;-47
2023/08/26 03:59:33;;;;;;;0.73;0.28;;;;;;;15.39;100.00;100040.72;5033363;28;20036;-48
2023/08/26 04:01:58;;;;;;;0.40;0.38;;;;;;;15.21;100.00;100041.66;5033096;28;20064;-46
2023/08/26 04:04:23;;;;;;;34.67;1.10;;;;;;;15.15;100.00;100035.34;5038309;28;20047;-50
2023/08/26 04:06:49;;;;;;;0.73;0.45;;;;;;;15.13;100.00;100042.00;5036150;28;20025;-48
2023/08/26 04:09:14;;;;;;;5.22;0.57;;;;;;;15.20;100.00;100048.81;5041653;28;20033;-48
2023/08/26 04:11:40;;;;;;;0.50;0.30;;;;;;;15.21;100.00;100041.66;5032949;28;20496;-46
2023/08/26 04:14:06;;;;;;;1.45;0.90;;;;;;;15.14;100.00;100048.94;5031144;28;20466;-46
2023/08/26 04:16:31;;;;;;;0.80;0.65;;;;;;;15.26;100.00;100055.13;5037198;28;20044;-46
2023/08/26 04:18:57;;;;;;;1.02;0.60;;;;;;;15.40;100.00;100048.47;5038871;28;20047;-47
2023/08/26 04:21:22;;;;;;;0.70;0.65;;;;;;;15.47;100.00;100046.50;5036701;28;20067;-48
2023/08/26 04:23:47;;;;;;;1.70;0.40;;;;;;;15.48;100.00;100040.09;5039537;28;20092;-48
2023/08/26 04:26:13;;;;;;;0.45;0.40;;;;;;;15.48;100.00;100037.44;5049465;28;20591;-46
2023/08/26 04:28:38;;;;;;;1.20;0.80;;;;;;;15.37;100.00;100046.28;5033266;28;20100;-49
2023/08/26 04:31:06;;;;;;;0.52;0.52;;;;;;;15.30;100.00;100045.56;5023666;28;20029;-50
2023/08/26 04:33:31;;;;;;;1.85;0.50;;;;;;;15.35;100.00;100047.56;5035459;28;20398;-49
2023/08/26 04:35:56;;;;;;;2.22;0.60;;;;;;;15.38;100.00;100039.88;5030284;28;20056;-49
2023/08/26 04:38:22;;;;;;;0.60;0.60;;;;;;;15.48;100.00;100029.41;5026621;28;20116;-46
2023/08/26 04:40:47;;;;;;;0.50;0.50;;;;;;;15.41;100.00;100028.75;5036050;28;20116;-50
2023/08/26 04:43:12;;;;;;;0.55;0.55;;;;;;;15.35;100.00;100021.66;5033646;28;20072;-50
2023/08/26 04:45:38;;;;;;;0.63;0.63;;;;;;;15.32;100.00;100030.13;5027467;28;20537;-49
2023/08/26 04:48:05;;;;;;;1.10;0.80;;;;;;;15.38;100.00;100034.53;5024013;28;20021;-49
2023/08/26 04:50:31;;;;;;;0.95;0.65;;;;;;;15.47;100.00;100035.00;5035656;28;20100;-51
2023/08/26 04:52:57;;;;;;;0.95;0.55;;;;;;;15.48;100.00;100032.09;5032977;28;20605;-51
2023/08/26 04:55:22;;;;;;;0.90;0.90;;;;;;;15.52;100.00;100028.97;5028540;28;20078;-51
2023/08/26 04:57:47;;;;;;;0.60;0.60;;;;;;;15.45;100.00;100040.56;5038720;28;20025;-46
2023/08/26 05:00:16;;;;;;;1.98;0.73;;;;;;;15.42;100.00;100035.72;5031743;28;20166;-51
2023/08/26 05:02:42;;;;;;;1.38;1.23;;;;;;;15.37;100.00;100035.59;5030304;28;20054;-50
2023/08/26 05:05:07;;;;;;;1.45;1.33;;;;;;;15.46;100.00;100026.19;5033061;28;20032;-47
2023/08/26 05:07:33;;;;;;;4.47;1.33;;;;;;;15.55;100.00;100023.16;5032521;28;20077;-47
2023/08/26 05:09:59;;;;;;;1.45;1.35;;;;;;;15.58;100.00;100022.69;5023920;28;20029;-46
2023/08/26 05:12:25;;;;;;;1.23;0.95;;;;;;;15.68;100.00;100033.59;5038630;28;20494;-47
2023/08/26 05:14:50;;;;;;;1.38;1.20;;;;;;;15.81;100.00;100030.69;5024669;28;20044;-48
2023/08/26 05:17:16;;;;;;;1.85;1.75;;;;;;;15.84;100.00;100046.25;5036568;28;20479;-48
2023/08/26 05:19:42;;;;;;;2.50;1.80;;;;;;;15.75;100.00;100044.16;5027509;28;20489;-47
2023/08/26 05:22:07;;;;;;;2.33;2.13;;;;;;;15.71;100.00;100054.53;5034413;28;20106;-50
2023/08/26 05:24:32;;;;;;;1.98;1.38;;;;;;;15.69;100.00;100048.59;5028028;28;20334;-46
2023/08/26 05:26:58;;;;;;;3.28;2.05;;;;;;;15.64;100.00;100051.13;5037318;28;20063;-47
2023/08/26 05:29:23;;;;;;;4.00;2.67;;;;;;;15.69;100.00;100053.94;5037398;28;20052;-45
2023/08/26 05:31:48;;;;;;;2.45;1.95;;;;;;;15.82;100.00;100050.19;5031629;28;20037;-48
2023/08/26 05:34:14;;;;;;;3.10;2.00;;;;;;;15.78;100.00;100055.22;5029157;28;20067;-49
2023/08/26 05:36:39;;;;;;;6.57;3.50;;;;;;;15.61;100.00;100056.94;5028363;28;20048;-49
2023/08/26 05:39:04;;;;;;;4.72;1.77;;;;;;;15.54;100.00;100057.09;5025317;28;20045;-52
2023/08/26 05:41:30;;;;;;;5.57;1.40;;;;;;;15.54;100.00;100064.25;5039900;28;20036;-49
2023/08/26 05:43:55;;;;;;;3.00;2.00;;;;;;;15.60;100.00;100058.81;5035410;28;20033;-48
2023/08/26 05:46:20;;;;;;;2.85;1.50;;;;;;;15.45;100.00;100045.91;5031510;28;20055;-50
2023/08/26 05:48:46;;;;;;;1.80;1.70;;;;;;;15.44;100.00;100052.31;5036784;28;20033;-46
2023/08/26 05:51:11;;;;;;;2.50;1.67;;;;;;;15.55;100.00;100057.88;5041531;28;20417;-51
2023/08/26 05:53:36;;;;;;;1.48;1.23;;;;;;;15.58;100.00;100060.09;5028978;28;20033;-49
2023/08/26 05:56:02;;;;;;;1.98;1.20;;;;;;;15.68;100.00;100060.31;5030823;28;20021;-51
2023/08/26 05:58:27;;;;;;;1.17;1.08;;;;;;;15.74;100.00;100056.72;5034303;28;20569;-51
2023/08/26 06:00:52;;;;;;;1.40;1.27;;;;;;;15.76;100.00;100059.97;5030289;28;20113;-47
2023/08/26 06:03:18;;;;;;;2.08;1.70;;;;;;;15.62;100.00;100061.25;5036112;28;20076;-47
2023/08/26 06:05:43;;;;;;;7.47;3.08;;;;;;;15.74;100.00;100053.25;5036211;28;20144;-49
2023/08/26 06:08:09;;;;;;;3.20;2.00;;;;;;;15.76;100.00;100056.50;5030721;28;20025;-49
2023/08/26 06:10:34;;;;;;;2.20;1.52;;;;;;;15.78;100.00;100062.44;5031771;28;20059;-46
2023/08/26 06:13:00;;;;;;;4.90;1.65;;;;;;;15.82;100.00;100060.88;5033681;28;20041;-48
2023/08/26 06:15:25;;;;;;;2.47;2.28;;;;;;;15.86;100.00;100062.06;5025620;28;20481;-46
2023/08/26 06:17:50;;;;;;;2.63;2.28;;;;;;;15.96;100.00;100066.81;5038142;28;20037;-49
2023/08/26 06:20:16;;;;;;;3.08;1.92;;;;;;;15.84;100.00;100056.94;5037853;28;20053;-50
2023/08/26 06:22:45;;;;;;;2.03;1.33;;;;;;;15.95;100.00;100060.63;5034296;28;20036;-47
2023/08/26 06:25:11;;;;;;;1.60;1.50;;;;;;;16.00;100.00;100058.06;5025085;28;20541;-51
2023/08/26 06:27:36;;;;;;;1.90;1.80;;;;;;;16.14;100.00;100051.38;5040946;28;20083;-46
2023/08/26 06:30:03;;;;;;;1.80;1.65;;;;;;;16.19;100.00;100055.22;5027764;28;20040;-49
2023/08/26 06:32:32;;;;;;;1.23;1.13;;;;;;;16.14;100.00;100062.09;5039649;28;20040;-48
2023/08/26 06:34:57;;;;;;;1.45;1.33;;;;;;;16.23;100.00;100057.16;5025776;28;20022;-51
2023/08/26 06:37:22;;;;;;;1.02;0.95;;;;;;;16.28;100.00;100059.94;5039528;28;20078;-48
2023/08/26 06:39:48;;;;;;;1.38;1.27;;;;;;;16.23;100.00;100062.50;5023131;28;20083;-49
2023/08/26 06:42:14;;;;;;;1.90;1.73;;;;;;;16.18;100.00;100065.09;5030010;28;20037;-52
2023/08/26 06:44:39;;;;;;;2.15;1.15;;;;;;;16.14;100.00;100070.13;5036796;28;20037;-52
2023/08/26 06:47:09;;;;;;;1.95;1.60;;;;;;;16.23;100.00;100067.06;5029946;28;20131;-47
2023/08/26 06:49:34;;;;;;;1.75;1.65;;;;;;;16.30;100.00;100079.25;5035177;28;20488;-45
2023/08/26 06:51:59;;;;;;;1.85;1.70;;;;;;;16.38;100.00;100082.59;5032846;28;20025;-47
2023/08/26 06:54:25;;;;;;;1.95;1.73;;;;;;;16.39;100.00;100081.53;5031342;28;20098;-47
2023/08/26 06:56:50;;;;;;;1.83;1.60;;;;;;;16.28;100.00;100081.34;5034260;28;20025;-48
2023/08/26 06:59:16;;;;;;;1.65;1.52;;;;;;;16.27;100.00;100079.72;5034913;28;20074;-50
2023/08/26 07:01:41;;;;;;;1.35;1.25;;;;;;;16.53;100.00;100078.34;5028246;28;20067;-48
2023/08/26 07:04:07;;;;;;;2.67;1.90;;;;;;;16.72;100.00;100068.22;5036000;28;20033;-53
2023/08/26 07:06:33;;;;;;;2.00;1.80;;;;;;;16.89;100.00;100070.16;5032609;28;20033;-49
2023/08/26 07:08:59;;;;;;;2.30;2.08;;;;;;;17.00;100.00;100063.91;5035486;28;20044;-48
2023/08/26 07:11:24;;;;;;;1.63;1.52;;;;;;;17.07;100.00;100072.59;5037024;28;20393;-47
2023/08/26 07:13:50;;;;;;;1.60;1.42;;;;;;;17.09;100.00;100065.13;5035686;28;20025;-46
2023/08/26 07:16:15;;;;;;;1.25;1.10;;;;;;;17.21;100.00;100059.66;5036841;28;20043;-48
2023/08/26 07:18:41;;;;;;;1.65;1.55;;;;;;;17.34;100.00;100061.19;5038034;28;20033;-50
2023/08/26 07:21:06;;;;;;;1.67;1.55;;;;;;;17.39;100.00;100056.72;5036128;28;20501;-48
2023/08/26 07:23:32;;;;;;;1.83;1.25;;;;;;;17.30;100.00;100065.44;5041925;28;20064;-46
2023/08/26 07:25:57;;;;;;;4.90;2.33;;;;;;;17.33;100.00;100068.44;5038312;28;20123;-49
2023/08/26 07:28:23;;;;;;;2.95;2.08;;;;;;;17.40;100.00;100053.00;5032016;28;20398;-49
2023/08/26 07:30:49;;;;;;;2.42;1.83;;;;;;;17.48;100.00;100050.94;5031759;28;20527;-52
2023/08/26 07:33:14;;;;;;;2.80;2.53;;;;;;;17.44;100.00;100050.63;5033037;28;20017;-51
2023/08/26 07:35:39;;;;;;;3.08;2.20;;;;;;;17.53;100.00;100056.38;5037656;28;20502;-46
2023/08/26 07:38:05;;;;;;;2.30;2.10;;;;;;;17.69;100.00;100057.41;5039579;28;20527;-50
2023/08/26 07:40:30;;;;;;;2.50;2.15;;;;;;;17.75;100.00;100056.41;5031264;28;20148;-51
2023/08/26 07:42:55;;;;;;;3.47;1.95;;;;;;;17.93;100.00;100058.81;5030615;28;20431;-50
2023/08/26 07:45:21;;;;;;;4.65;2.95;;;;;;;17.98;100.00;100061.56;5028940;28;20501;-51
2023/08/26 07:47:47;;;;;;;2.00;1.70;;;;;;;18.13;100.00;100054.75;5040872;28;20029;-50
2023/08/26 07:50:12;;;;;;;4.05;1.65;;;;;;;18.24;100.00;100054.59;5031465;28;20120;-50
2023/08/26 07:52:38;;;;;;;3.67;1.95;;;;;;;18.15;100.00;100047.25;5038235;28;20131;-49
2023/08/26 07:55:04;;;;;;;4.47;1.70;;;;;;;18.05;100.00;100056.81;5038590;28;20554;-51
2023/08/26 07:57:29;;;;;;;3.03;1.80;;;;;;;18.11;100.00;100052.31;5041929;28;20060;-51
2023/08/26 07:59:55;;;;;;;1.45;1.35;;;;;;;18.01;100.00;100058.34;5036502;28;20465;-49
2023/08/26 08:02:20;;;;;;;6.30;1.70;;;;;;;18.21;100.00;100065.03;5039770;28;20499;-52
2023/08/26 08:04:45;;;;;;;2.17;1.50;;;;;;;18.46;100.00;100051.88;5039236;28;20025;-46
2023/08/26 08:07:11;;;;;;;1.90;1.80;;;;;;;18.53;100.00;100057.03;5031777;28;20537;-44
2023/08/26 08:09:36;;;;;;;2.30;1.80;;;;;;;18.91;100.00;100060.63;5031865;28;20032;-50
2023/08/26 08:12:02;;;;;;;1.92;1.73;;;;;;;19.24;100.00;100056.06;5033020;28;20167;-46
2023/08/26 08:14:27;;;;;;;1.95;1.85;;;;;;;19.21;100.00;100052.00;5029478;28;20030;-47
2023/08/26 08:16:53;;;;;;;6.60;2.83;;;;;;;19.20;100.00;100058.44;5038818;28;20547;-50
2023/08/26 08:19:18;;;;;;;1.33;1.05;;;;;;;19.09;100.00;100048.69;5033532;28;20063;-48
2023/08/26 08:21:43;;;;;;;1.38;1.27;;;;;;;19.08;100.00;100057.81;5027127;28;20375;-47
2023/08/26 08:24:09;;;;;;;3.28;2.33;;;;;;;19.16;100.00;100060.84;5027192;28;20035;-46
2023/08/26 08:26:35;;;;;;;2.95;1.20;;;;;;;19.17;100.00;100054.38;5030820;28;20039;-47
2023/08/26 08:29:01;;;;;;;1.38;1.27;;;;;;;19.31;100.00;100059.31;5037873;28;20033;-45
2023/08/26 08:31:26;;;;;;;3.13;1.48;;;;;;;19.35;100.00;100052.34;5032909;28;20420;-50
2023/08/26 08:33:52;;;;;;;2.83;1.00;;;;;;;19.51;100.00;100059.44;5036932;28;20034;-46
2023/08/26 08:36:17;;;;;;;1.27;1.02;;;;;;;19.64;100.00;100060.03;5034983;28;20022;-49
2023/08/26 08:38:42;;;;;;;0.88;0.88;;;;;;;19.69;100.00;100060.91;5038054;28;20089;-52
2023/08/26 08:41:08;;;;;;;0.63;0.63;;;;;;;19.51;100.00;100058.63;5036108;28;20407;-46
2023/08/26 08:43:36;;;;;;;0.20;0.20;;;;;;;19.56;100.00;100058.66;5035256;28;20148;-48
2023/08/26 08:46:02;;;;;;;1.60;0.38;;;;;;;19.43;100.00;100065.31;5038052;28;20030;-46
2023/08/26 08:48:28;;;;;;;1.17;0.32;;;;;;;19.34;100.00;100058.81;5029109;28;20025;-48
2023/08/26 08:50:55;;;;;;;0.70;0.22;;;;;;;19.51;100.00;100055.94;5038874;28;20033;-48
2023/08/26 08:53:28;;;;;;;2.92;0.40;;;;;;;19.56;100.00;100062.16;5037479;28;20481;-49
2023/08/26 08:55:54;;;;;;;0.20;0.20;;;;;;;19.63;100.00;100064.63;5034894;28;20930;-49
2023/08/26 08:58:21;;;;;;;1.95;0.10;;;;;;;19.69;100.00;100062.78;5035967;28;20040;-50
2023/08/26 09:00:47;;;;;;;1.17;0.30;;;;;;;19.92;100.00;100058.84;5033349;28;20120;-48
2023/08/26 09:03:14;;;;;;;0.10;0.00;;;;;;;20.04;100.00;100064.84;5039060;28;20102;-48
2023/08/26 09:05:39;;;;;;;0.10;0.10;;;;;;;19.74;100.00;100055.53;5038698;28;20072;-48
2023/08/26 09:08:08;;;;;;;0.00;0.00;;;;;;;19.99;100.00;100062.94;5033782;28;20112;-47
2023/08/26 09:10:35;;;;;;;0.03;0.00;;;;;;;19.78;100.00;100059.34;5031221;28;20028;-50
2023/08/26 09:13:00;;;;;;;0.25;0.05;;;;;;;20.38;100.00;100067.09;5037376;28;20086;-45
2023/08/26 09:15:26;;;;;;;0.30;0.20;;;;;;;20.30;100.00;100063.03;5038191;28;20033;-50
2023/08/26 09:17:56;;;;;;;0.00;0.00;;;;;;;20.04;100.00;100068.31;5037789;28;20025;-48
2023/08/26 09:20:22;;;;;;;0.00;0.00;;;;;;;20.32;100.00;100058.19;5028504;28;20116;-50
2023/08/26 09:22:47;;;;;;;1.73;0.35;;;;;;;20.42;100.00;100062.75;5032523;28;20136;-49
2023/08/26 09:25:12;;;;;;;0.20;0.15;;;;;;;20.15;100.00;100061.09;5026744;28;20033;-50
2023/08/26 09:27:42;;;;;;;0.30;0.00;;;;;;;20.15;100.00;100063.78;5028704;28;20021;-46
2023/08/26 09:30:08;;;;;;;1.75;0.45;;;;;;;20.20;100.00;100063.00;5018227;28;20120;-48
2023/08/26 09:32:39;;;;;;;0.03;0.03;;;;;;;20.15;100.00;100065.66;5021225;28;21170;-45
2023/08/26 09:35:09;;;;;;;0.47;0.00;;;;;;;20.22;100.00;100061.66;5020069;28;20033;-51
2023/08/26 09:37:34;;;;;;;0.05;0.00;;;;;;;20.33;100.00;100061.69;5016912;28;20129;-47
2023/08/26 09:40:00;;;;;;;0.32;0.00;;;;;;;20.59;100.00;100060.69;5024931;28;20030;-47
2023/08/26 09:42:26;;;;;;;0.10;0.00;;;;;;;20.98;100.00;100062.84;5020921;28;20033;-46
2023/08/26 09:44:55;;;;;;;0.00;0.00;;;;;;;21.08;100.00;100060.16;5027401;28;20045;-46
2023/08/26 09:47:20;;;;;;;0.20;0.10;;;;;;;21.53;100.00;100063.09;5021851;28;20677;-45
2023/08/26 09:49:49;;;;;;;0.10;0.00;;;;;;;21.99;100.00;100071.84;5021958;28;20025;-45
2023/08/26 09:52:15;;;;;;;2.10;0.10;;;;;;;22.29;100.00;100066.59;5019916;28;20057;-50
2023/08/26 09:54:44;;;;;;;1.98;0.00;;;;;;;22.37;100.00;100064.09;5022678;28;20817;-48
2023/08/26 09:57:09;;;;;;;0.13;0.00;;;;;;;22.58;100.00;100063.97;5022022;28;20021;-50
2023/08/26 09:59:35;;;;;;;0.00;0.00;;;;;;;22.75;100.00;100056.28;5017704;28;20052;-51
2023/08/26 10:02:04;;;;;;;0.40;0.00;;;;;;;23.19;100.00;100063.50;5022174;28;20499;-47
2023/08/26 10:04:36;;;;;;;2.45;0.10;;;;;;;23.55;100.00;100059.63;5020465;28;20488;-48
2023/08/26 10:07:02;;;;;;;0.05;0.00;;;;;;;23.36;100.00;100059.53;5021773;28;20116;-44
2023/08/26 10:09:30;;;;;;;0.00;0.00;;;;;;;23.27;100.00;100065.56;5019026;28;20062;-48
2023/08/26 10:12:00;;;;;;;0.90;0.00;;;;;;;23.27;100.00;100057.47;5001824;28;20304;-48
2023/08/26 10:14:29;;;;;;;0.63;0.00;;;;;;;23.23;100.00;100045.63;5009571;28;20029;-52
2023/08/26 10:16:56;;;;;;;0.20;0.00;;;;;;;22.95;100.00;100051.78;5013448;28;20108;-49
2023/08/26 10:19:23;;;;;;;0.10;0.00;;;;;;;22.80;100.00;100056.22;5015319;28;20856;-48
2023/08/26 10:21:50;;;;;;;1.08;0.82;;;;;;;22.95;100.00;100060.72;5022538;28;20514;-46
2023/08/26 10:24:16;;;;;;;0.82;0.00;;;;;;;23.15;100.00;100057.03;5025255;28;20037;-48
2023/08/26 10:26:41;;;;;;;0.00;0.00;;;;;;;23.40;100.00;100053.28;5016579;28;20029;-46
2023/08/26 10:29:07;;;;;;;0.15;0.00;;;;;;;23.28;100.00;100050.16;5018381;28;20513;-50
2023/08/26 10:31:36;;;;;;;0.10;0.00;;;;;;;23.47;100.00;100048.34;5025304;28;20080;-48
2023/08/26 10:34:07;;;;;;;0.00;0.00;;;;;;;23.48;100.00;100046.44;5021708;28;20079;-49
2023/08/26 10:36:36;;;;;;;;;;;;;;;23.97;100.00;100050.75;5022276;28;20037;-49
2023/08/26 10:39:02;;;;;;;1.45;0.00;;;;;;;23.84;100.00;100046.03;5019832;28;19921;-44
2023/08/26 10:41:28;;;;;;;1.55;0.80;;;;;;;23.93;100.00;100042.41;5023422;28;20029;-49
2023/08/26 10:43:55;;;;;;;0.40;0.00;;;;;;;23.91;100.00;100035.69;5021275;28;20025;-49
2023/08/26 10:46:55;;;;;;;1.38;0.28;;;;;;;23.80;100.00;100042.28;5022911;28;20293;-48
2023/08/26 10:49:30;;;;;;;0.23;0.00;;;;;;;23.82;100.00;100034.69;5024407;28;20406;-49
2023/08/26 10:52:14;;;;;;;0.95;0.05;;;;;;;23.79;100.00;100035.28;5021608;28;20018;-47
2023/08/26 10:54:42;;;;;;;4.38;0.00;;;;;;;23.75;100.00;100040.47;5026433;28;20530;-45
2023/08/26 10:57:08;;;;;;;0.43;0.00;;;;;;;23.38;100.00;100041.94;5025518;28;20033;-47
2023/08/26 10:59:35;;;;;;;1.95;0.20;;;;;;;22.94;100.00;100047.47;5025463;28;20096;-48
2023/08/26 11:02:03;;;;;;;0.00;0.00;;;;;;;21.94;100.00;100055.66;5021968;28;20053;-47
2023/08/26 11:04:28;;;;;;;0.38;0.00;;;;;;;20.88;100.00;100063.69;5025162;28;20086;-47
2023/08/26 11:06:54;;;;;;;0.85;0.10;;;;;;;19.96;100.00;100076.09;5021979;28;20041;-49
2023/08/26 11:09:19;;;;;;;0.80;0.05;;;;;;;19.81;100.00;100068.78;5025573;28;20032;-54
2023/08/26 11:11:46;;;;;;;0.10;0.00;;;;;;;19.56;100.00;100074.78;5024599;28;20029;-53